Etusivu
METAR-TAF:

METAR-TAF

Lentoasemat :

Flin Flon, Manitoba, Kanada

Leveyspiiri: 54-41N, Pituuspiiri: 101-41W, korkeus merenpinnasta: 304 m

Tämänhetkinen sää

Tämä raportti tehtiin 45 minuuttia sitten, kello 15.00 UTC
Tuuli 11 kn pohjoisesta puuskistuen 17 kn:hen
Lämpötila -26°C
Kosteus 62%
Ilmanpaine 1005 hPa
Näkyvyys: 24.1 km
Hajonneita pilviä 1900 ft:n korkeudessa
Pilvistä 18000 ft:n korkeudessa
matalaa lumituiskua

METAR: CYFO 261500Z 01011G17KT 15SM DRSN BKN019 OVC180 M26/M31 A2967 RMK SC7AS4 SLP080

Aika: 09:45 (15:45 UTC)


TAF: puuttuu

Säähavainnot ja -ennusteet yli 4000 lentoasemalta (METAR- ja TAF-raportit).

Käytössä olevat sääasemat on merkitty karttaan keltaisilla ja punaisilla pisteillä.

Aseta hiiri pisteen päälle nähdäksesi sääaseman nimen.

Klikkaa sitten nähdäksesi säähavainnot ja -ennusteet.

Kartan vaihtaminen: klikkaa mustalla rastilla varustettuja vihreitä pisteitä, niin voit zoomata sisään; viivalla varustettua vihreää pistettä, niin voit zoomata ulos tai vihreitä nuolia, niin pääset viereisille kartoille.


METAR-TAF: